createdAt,value
2018-12-05T00:06:40.000Z,1018.698
2018-12-05T00:16:40.000Z,1018.727
2018-12-05T00:26:40.000Z,1018.613
2018-12-05T00:36:40.000Z,1018.528
2018-12-05T00:46:40.000Z,1018.552
2018-12-05T00:56:40.000Z,1018.562
2018-12-05T01:06:40.000Z,1018.685
2018-12-05T01:16:40.000Z,1018.649
2018-12-05T01:26:40.000Z,1018.518
2018-12-05T01:36:40.000Z,1018.658
2018-12-05T01:46:40.000Z,1018.546
2018-12-05T01:56:40.000Z,1018.546
2018-12-05T02:06:40.000Z,1018.558
2018-12-05T02:16:40.000Z,1018.548
2018-12-05T02:26:40.000Z,1018.551
2018-12-05T02:36:40.000Z,1018.644
2018-12-05T02:46:40.000Z,1018.486
2018-12-05T02:56:40.000Z,1018.484
2018-12-05T03:06:40.000Z,1018.477
2018-12-05T03:16:40.000Z,1018.366
2018-12-05T03:26:40.000Z,1018.391
2018-12-05T03:36:40.000Z,1018.458
2018-12-05T03:46:40.000Z,1018.39
2018-12-05T03:56:40.000Z,1018.28
2018-12-05T04:06:40.000Z,1018.207
2018-12-05T04:16:40.000Z,1018.216
2018-12-05T04:26:40.000Z,1018.371
2018-12-05T04:36:40.000Z,1018.325
2018-12-05T04:46:40.000Z,1018.389
2018-12-05T04:56:40.000Z,1018.295
2018-12-05T05:06:40.000Z,1018.267
2018-12-05T05:16:40.000Z,1018.162
2018-12-05T05:26:40.000Z,1018.147
2018-12-05T05:36:40.000Z,1018.12
2018-12-05T05:46:40.000Z,1018.072
2018-12-05T05:56:40.000Z,1018.159
2018-12-05T06:06:40.000Z,1018.319
2018-12-05T06:16:40.000Z,1018.18
2018-12-05T06:26:40.000Z,1018.221
2018-12-05T06:36:40.000Z,1018.277
2018-12-05T06:46:40.000Z,1018.278
2018-12-05T06:56:41.000Z,1018.275
2018-12-05T07:06:40.000Z,1018.3
2018-12-05T07:16:41.000Z,1018.328
2018-12-05T07:26:41.000Z,1018.229
2018-12-05T07:36:41.000Z,1018.19
2018-12-05T07:46:41.000Z,1018.163
2018-12-05T07:56:41.000Z,1018.151
2018-12-05T08:06:41.000Z,1018.146
2018-12-05T08:16:41.000Z,1018.117
2018-12-05T08:26:41.000Z,1017.959
2018-12-05T08:36:41.000Z,1017.8
2018-12-05T08:46:41.000Z,1017.83
2018-12-05T08:56:41.000Z,1017.78
2018-12-05T09:06:41.000Z,1017.576
2018-12-05T09:16:41.000Z,1017.533
2018-12-05T09:26:41.000Z,1017.464
2018-12-05T09:36:41.000Z,1017.422
2018-12-05T09:46:41.000Z,1017.315
2018-12-05T09:56:41.000Z,1017.19
2018-12-05T10:06:41.000Z,1017.065
2018-12-05T10:16:41.000Z,1016.927
2018-12-05T10:26:41.000Z,1016.743
2018-12-05T10:36:41.000Z,1016.695
2018-12-05T10:46:41.000Z,1016.439
2018-12-05T10:56:41.000Z,1016.282
2018-12-05T11:06:41.000Z,1016.195
2018-12-05T11:16:41.000Z,1016.031
2018-12-05T11:26:41.000Z,1015.849
2018-12-05T11:36:41.000Z,1015.791
2018-12-05T11:46:41.000Z,1015.579
2018-12-05T11:56:41.000Z,1015.4
2018-12-05T12:06:43.000Z,1015.276
2018-12-05T12:16:41.000Z,1015.111
2018-12-05T12:26:41.000Z,1014.934
2018-12-05T12:36:41.000Z,1014.836
2018-12-05T12:46:41.000Z,1014.807
2018-12-05T12:56:41.000Z,1014.633
2018-12-05T13:06:41.000Z,1014.437
2018-12-05T13:16:41.000Z,1014.43
2018-12-05T13:26:41.000Z,1014.239
2018-12-05T13:36:41.000Z,1014.1
2018-12-05T13:46:41.000Z,1013.949
2018-12-05T13:56:41.000Z,1013.822
2018-12-05T14:06:41.000Z,1013.577
2018-12-05T14:16:41.000Z,1013.513
2018-12-05T14:26:41.000Z,1013.347
2018-12-05T14:36:41.000Z,1013.123
2018-12-05T14:46:42.000Z,1013.06
2018-12-05T14:56:41.000Z,1012.879
2018-12-05T15:06:41.000Z,1012.775
2018-12-05T15:16:41.000Z,1012.665
2018-12-05T15:26:41.000Z,1012.535
2018-12-05T15:36:41.000Z,1012.298
2018-12-05T15:46:42.000Z,1012.192
2018-12-05T15:56:42.000Z,1011.966
2018-12-05T16:06:42.000Z,1011.863
2018-12-05T16:16:42.000Z,1011.633
2018-12-05T16:36:42.000Z,1011.214
2018-12-05T16:46:42.000Z,1011.043
2018-12-05T16:56:42.000Z,1010.929
2018-12-05T17:06:44.000Z,1010.75
2018-12-05T17:16:42.000Z,1010.682
2018-12-05T17:26:42.000Z,1010.513
2018-12-05T17:36:42.000Z,1010.489
2018-12-05T17:46:42.000Z,1010.356
2018-12-05T17:56:44.000Z,1010.213
2018-12-05T18:06:42.000Z,1010.056
2018-12-05T18:16:42.000Z,1010.194
2018-12-05T18:26:42.000Z,1010.122
2018-12-05T18:36:42.000Z,1009.903
2018-12-05T18:46:42.000Z,1009.629
2018-12-05T18:56:42.000Z,1009.461
2018-12-05T19:06:42.000Z,1009.239
2018-12-05T19:16:42.000Z,1009.149
2018-12-05T19:26:42.000Z,1009.057
2018-12-05T19:36:42.000Z,1008.91
2018-12-05T19:46:42.000Z,1008.806
2018-12-05T19:56:42.000Z,1008.725
2018-12-05T20:06:42.000Z,1008.629
2018-12-05T20:16:42.000Z,1008.541
2018-12-05T20:26:42.000Z,1008.419
2018-12-05T20:36:42.000Z,1008.278
2018-12-05T20:46:42.000Z,1008.079
2018-12-05T20:56:42.000Z,1007.962
2018-12-05T21:06:42.000Z,1007.994
2018-12-05T21:16:43.000Z,1007.892
2018-12-05T21:26:42.000Z,1007.8
2018-12-05T21:36:42.000Z,1007.75
2018-12-05T21:46:42.000Z,1007.781
2018-12-05T21:56:42.000Z,1007.588
2018-12-05T22:06:42.000Z,1007.458
2018-12-05T22:16:42.000Z,1007.477
2018-12-05T22:26:42.000Z,1007.505
2018-12-05T22:36:42.000Z,1007.228
2018-12-05T22:46:42.000Z,1007.023
2018-12-05T22:56:42.000Z,1006.873
2018-12-05T23:06:42.000Z,1006.79
2018-12-05T23:16:42.000Z,1006.762
2018-12-05T23:26:42.000Z,1006.662
2018-12-05T23:36:42.000Z,1006.56
2018-12-05T23:46:43.000Z,1006.422
2018-12-05T23:56:43.000Z,1006.297
